Terminal Aerodrome Forecast
Issued by NWS Honolulu, HI

Home | Current Version | Previous Version | Text Only | Print | Product List | Glossary On
Versions: 1 2 3 4 5 6 7 8 9 10 11 12 13 14 15 16 17 18 19 20 21 22 23 24 25 26
000
FTPA31 PHFO 241400 AAA
TAFHNL
TAF AMD
PHNL 241436Z 2415/2518 VRB05KT P6SM FEW025 SCT045
     FM242000 07013G20KT P6SM FEW030 SCT050
     FM250500 06008KT P6SM FEW025 SCT045=

USA.gov is the U.S. government's official web portal to all federal, state and local government web resources and services.